PWSweather.com
Personal Weather Stations
Station Observations
KOMOKA
Komoka Village, Komoka, ON N0L IRO

Komoka VillageKomoka, ON N0L IRO

Lat: 42.9542444, Lon: -81.4348861

Elevation: 805

Station Type: Davis Vantage Pro 2

Latest ConditionsUpdated 11:50:42 AM EST Monday, Jan 23, 2017
Currently Today's Max Today's Min Today's Average
Temperature 40.6°F4.8°C 40.6°F4.8°C 37.0°F2.8°C 38.3°F3.5°C
Dew Point 38.1°F3.4°C 38.3°F3.5°C 34.3°F1.3°C 35.4°F1.9°C
Winds 5.0 mph E8.0 kmh E 8.0 mph E12.9 kmh E - 4.7 mph 7.6 kmh
Wind Gusts 15.0 mph24.1 kmh 23.0 mph37.0 kmh - -
Humidity 91% 92% 86% 89%
Pressure 29.70 in1005.8 mb 29.71 in1006.1 mb 29.64 in1003.7 mb -
Hour Temp Dew Point Humidity Winds Wind Gusts Pressure Precip Precip Rate Daily Precip Total
11:50 AM 40.6°F4.8°C 38.1°F3.4°C 91% 5.0 mph E8.0 kmh E 15.0 mph24.1 kmh 29.70 in1005.8 mb 0.00 in0.0 mm 0.00 in0.0 mm 0.00 in0.0 mm
11:43 AM 40.5°F4.7°C 38.1°F3.4°C 91% 5.0 mph E8.0 kmh E 20.0 mph32.2 kmh 29.70 in1005.8 mb 0.00 in0.0 mm 0.00 in0.0 mm 0.00 in0.0 mm
11:36 AM 40.5°F4.7°C 38.3°F3.5°C 92% 5.0 mph ENE8.0 kmh ENE 15.0 mph24.1 kmh 29.70 in1005.8 mb 0.00 in0.0 mm 0.00 in0.0 mm 0.00 in0.0 mm
11:29 AM 40.5°F4.7°C 37.9°F3.3°C 91% 5.0 mph ENE8.0 kmh ENE 12.0 mph19.3 kmh 29.71 in1006.1 mb 0.00 in0.0 mm 0.00 in0.0 mm 0.00 in0.0 mm
11:22 AM 40.5°F4.7°C 37.9°F3.3°C 91% 5.0 mph E8.0 kmh E 12.0 mph19.3 kmh 29.71 in1006.1 mb 0.00 in0.0 mm 0.00 in0.0 mm 0.00 in0.0 mm
11:15 AM 40.5°F4.7°C 37.9°F3.3°C 91% 4.0 mph E6.4 kmh E 15.0 mph24.1 kmh 29.71 in1006.1 mb 0.00 in0.0 mm 0.00 in0.0 mm 0.00 in0.0 mm
11:08 AM 40.3°F4.6°C 37.8°F3.2°C 91% 4.0 mph E6.4 kmh E 19.0 mph30.6 kmh 29.71 in1006.1 mb 0.00 in0.0 mm 0.00 in0.0 mm 0.00 in0.0 mm
11:01 AM 39.9°F4.4°C 37.6°F3.1°C 91% 3.0 mph E4.8 kmh E 9.0 mph14.5 kmh 29.71 in1006.1 mb 0.00 in0.0 mm 0.00 in0.0 mm 0.00 in0.0 mm
10:54 AM 39.9°F4.4°C 37.4°F3.0°C 91% 5.0 mph E8.0 kmh E 15.0 mph24.1 kmh 29.71 in1006.1 mb 0.00 in0.0 mm 0.00 in0.0 mm 0.00 in0.0 mm
10:47 AM 39.7°F4.3°C 37.2°F2.9°C 91% 5.0 mph E8.0 kmh E 15.0 mph24.1 kmh 29.71 in1006.1 mb 0.00 in0.0 mm 0.00 in0.0 mm 0.00 in0.0 mm
10:40 AM 39.6°F4.2°C 36.9°F2.7°C 90% 4.0 mph E6.4 kmh E 13.0 mph20.9 kmh 29.71 in1006.1 mb 0.00 in0.0 mm 0.00 in0.0 mm 0.00 in0.0 mm
10:33 AM 39.6°F4.2°C 36.9°F2.7°C 90% 4.0 mph E6.4 kmh E 13.0 mph20.9 kmh 29.71 in1006.1 mb 0.00 in0.0 mm 0.00 in0.0 mm 0.00 in0.0 mm
10:26 AM 39.6°F4.2°C 36.9°F2.7°C 90% 5.0 mph ENE8.0 kmh ENE 15.0 mph24.1 kmh 29.71 in1006.1 mb 0.00 in0.0 mm 0.00 in0.0 mm 0.00 in0.0 mm
10:19 AM 39.4°F4.1°C 36.7°F2.6°C 90% 4.0 mph ENE6.4 kmh ENE 8.0 mph12.9 kmh 29.71 in1006.1 mb 0.00 in0.0 mm 0.00 in0.0 mm 0.00 in0.0 mm
10:12 AM 39.4°F4.1°C 36.7°F2.6°C 90% 4.0 mph E6.4 kmh E 16.0 mph25.7 kmh 29.71 in1006.1 mb 0.00 in0.0 mm 0.00 in0.0 mm 0.00 in0.0 mm
10:05 AM 39.2°F4.0°C 36.5°F2.5°C 90% 5.0 mph E8.0 kmh E 16.0 mph25.7 kmh 29.71 in1006.1 mb 0.00 in0.0 mm 0.00 in0.0 mm 0.00 in0.0 mm
09:58 AM 39.0°F3.9°C 36.5°F2.5°C 90% 5.0 mph E8.0 kmh E 13.0 mph20.9 kmh 29.71 in1006.1 mb 0.00 in0.0 mm 0.00 in0.0 mm 0.00 in0.0 mm
09:51 AM 39.0°F3.9°C 36.5°F2.5°C 90% 4.0 mph ENE6.4 kmh ENE 9.0 mph14.5 kmh 29.71 in1006.1 mb 0.00 in0.0 mm 0.00 in0.0 mm 0.00 in0.0 mm
09:44 AM 39.0°F3.9°C 36.3°F2.4°C 90% 5.0 mph ENE8.0 kmh ENE 16.0 mph25.7 kmh 29.71 in1006.1 mb 0.00 in0.0 mm 0.00 in0.0 mm 0.00 in0.0 mm
09:37 AM 38.8°F3.8°C 36.1°F2.3°C 90% 4.0 mph E6.4 kmh E 16.0 mph25.7 kmh 29.70 in1005.8 mb 0.00 in0.0 mm 0.00 in0.0 mm 0.00 in0.0 mm
09:30 AM 38.8°F3.8°C 36.1°F2.3°C 90% 5.0 mph E8.0 kmh E 16.0 mph25.7 kmh 29.70 in1005.8 mb 0.00 in0.0 mm 0.00 in0.0 mm 0.00 in0.0 mm
09:23 AM 38.7°F3.7°C 36.0°F2.2°C 90% 5.0 mph E8.0 kmh E 16.0 mph25.7 kmh 29.70 in1005.8 mb 0.00 in0.0 mm 0.00 in0.0 mm 0.00 in0.0 mm
09:16 AM 38.5°F3.6°C 35.8°F2.1°C 90% 4.0 mph E6.4 kmh E 12.0 mph19.3 kmh 29.70 in1005.8 mb 0.00 in0.0 mm 0.00 in0.0 mm 0.00 in0.0 mm
09:09 AM 38.3°F3.5°C 35.6°F2.0°C 90% 3.0 mph E4.8 kmh E 9.0 mph14.5 kmh 29.70 in1005.8 mb 0.00 in0.0 mm 0.00 in0.0 mm 0.00 in0.0 mm
09:02 AM 38.1°F3.4°C 35.6°F2.0°C 90% 4.0 mph E6.4 kmh E 13.0 mph20.9 kmh 29.70 in1005.8 mb 0.00 in0.0 mm 0.00 in0.0 mm 0.00 in0.0 mm
08:55 AM 38.1°F3.4°C 35.6°F2.0°C 90% 4.0 mph E6.4 kmh E 13.0 mph20.9 kmh 29.70 in1005.8 mb 0.00 in0.0 mm 0.00 in0.0 mm 0.00 in0.0 mm
08:48 AM 38.1°F3.4°C 35.2°F1.8°C 89% 3.0 mph E4.8 kmh E 9.0 mph14.5 kmh 29.70 in1005.8 mb 0.00 in0.0 mm 0.00 in0.0 mm 0.00 in0.0 mm
08:41 AM 38.1°F3.4°C 35.1°F1.7°C 89% 3.0 mph E4.8 kmh E 12.0 mph19.3 kmh 29.69 in1005.4 mb 0.00 in0.0 mm 0.00 in0.0 mm 0.00 in0.0 mm
08:34 AM 37.9°F3.3°C 35.1°F1.7°C 89% 4.0 mph E6.4 kmh E 12.0 mph19.3 kmh 29.69 in1005.4 mb 0.00 in0.0 mm 0.00 in0.0 mm 0.00 in0.0 mm
08:27 AM 37.9°F3.3°C 34.9°F1.6°C 89% 4.0 mph E6.4 kmh E 8.0 mph12.9 kmh 29.68 in1005.1 mb 0.00 in0.0 mm 0.00 in0.0 mm 0.00 in0.0 mm
08:20 AM 37.8°F3.2°C 35.1°F1.7°C 90% 4.0 mph E6.4 kmh E 9.0 mph14.5 kmh 29.68 in1005.1 mb 0.00 in0.0 mm 0.00 in0.0 mm 0.00 in0.0 mm
08:13 AM 37.8°F3.2°C 35.1°F1.7°C 90% 4.0 mph E6.4 kmh E 16.0 mph25.7 kmh 29.68 in1005.1 mb 0.00 in0.0 mm 0.00 in0.0 mm 0.00 in0.0 mm
08:06 AM 37.8°F3.2°C 35.1°F1.7°C 90% 4.0 mph E6.4 kmh E 12.0 mph19.3 kmh 29.68 in1005.1 mb 0.00 in0.0 mm 0.00 in0.0 mm 0.00 in0.0 mm
07:59 AM 37.6°F3.1°C 34.9°F1.6°C 90% 4.0 mph E6.4 kmh E 12.0 mph19.3 kmh 29.68 in1005.1 mb 0.00 in0.0 mm 0.00 in0.0 mm 0.00 in0.0 mm
07:52 AM 37.6°F3.1°C 34.9°F1.6°C 90% 5.0 mph E8.0 kmh E 9.0 mph14.5 kmh 29.68 in1005.1 mb 0.00 in0.0 mm 0.00 in0.0 mm 0.00 in0.0 mm
07:45 AM 37.6°F3.1°C 34.9°F1.6°C 90% 4.0 mph E6.4 kmh E 12.0 mph19.3 kmh 29.68 in1005.1 mb 0.00 in0.0 mm 0.00 in0.0 mm 0.00 in0.0 mm
07:38 AM 37.6°F3.1°C 34.9°F1.6°C 90% 5.0 mph E8.0 kmh E 12.0 mph19.3 kmh 29.68 in1005.1 mb 0.00 in0.0 mm 0.00 in0.0 mm 0.00 in0.0 mm
07:31 AM 37.6°F3.1°C 34.9°F1.6°C 90% 3.0 mph E4.8 kmh E 8.0 mph12.9 kmh 29.68 in1005.1 mb 0.00 in0.0 mm 0.00 in0.0 mm 0.00 in0.0 mm
07:24 AM 37.6°F3.1°C 34.9°F1.6°C 90% 4.0 mph E6.4 kmh E 13.0 mph20.9 kmh 29.68 in1005.1 mb 0.00 in0.0 mm 0.00 in0.0 mm 0.00 in0.0 mm
07:17 AM 37.4°F3.0°C 34.7°F1.5°C 90% 5.0 mph E8.0 kmh E 13.0 mph20.9 kmh 29.67 in1004.7 mb 0.00 in0.0 mm 0.00 in0.0 mm 0.00 in0.0 mm
07:10 AM 37.4°F3.0°C 34.7°F1.5°C 90% 7.0 mph E11.3 kmh E 15.0 mph24.1 kmh 29.67 in1004.7 mb 0.00 in0.0 mm 0.00 in0.0 mm 0.00 in0.0 mm
07:03 AM 37.2°F2.9°C 34.7°F1.5°C 90% 5.0 mph E8.0 kmh E 15.0 mph24.1 kmh 29.67 in1004.7 mb 0.00 in0.0 mm 0.00 in0.0 mm 0.00 in0.0 mm
06:56 AM 37.2°F2.9°C 34.7°F1.5°C 90% 5.0 mph ENE8.0 kmh ENE 13.0 mph20.9 kmh 29.67 in1004.7 mb 0.00 in0.0 mm 0.00 in0.0 mm 0.00 in0.0 mm
06:49 AM 37.2°F2.9°C 34.7°F1.5°C 90% 5.0 mph E8.0 kmh E 13.0 mph20.9 kmh 29.67 in1004.7 mb 0.00 in0.0 mm 0.00 in0.0 mm 0.00 in0.0 mm
06:42 AM 37.2°F2.9°C 34.5°F1.4°C 90% 7.0 mph E11.3 kmh E 13.0 mph20.9 kmh 29.66 in1004.4 mb 0.00 in0.0 mm 0.00 in0.0 mm 0.00 in0.0 mm
06:35 AM 37.2°F2.9°C 34.5°F1.4°C 90% 8.0 mph E12.9 kmh E 16.0 mph25.7 kmh 29.66 in1004.4 mb 0.00 in0.0 mm 0.00 in0.0 mm 0.00 in0.0 mm
06:28 AM 37.0°F2.8°C 34.5°F1.4°C 90% 5.0 mph ENE8.0 kmh ENE 13.0 mph20.9 kmh 29.66 in1004.4 mb 0.00 in0.0 mm 0.00 in0.0 mm 0.00 in0.0 mm
06:21 AM 37.0°F2.8°C 34.5°F1.4°C 90% 4.0 mph ENE6.4 kmh ENE 12.0 mph19.3 kmh 29.66 in1004.4 mb 0.00 in0.0 mm 0.00 in0.0 mm 0.00 in0.0 mm
06:14 AM 37.0°F2.8°C 34.3°F1.3°C 90% 4.0 mph ENE6.4 kmh ENE 12.0 mph19.3 kmh 29.66 in1004.4 mb 0.00 in0.0 mm 0.00 in0.0 mm 0.00 in0.0 mm
06:07 AM 37.0°F2.8°C 34.5°F1.4°C 90% 4.0 mph E6.4 kmh E 11.0 mph17.7 kmh 29.66 in1004.4 mb 0.00 in0.0 mm 0.00 in0.0 mm 0.00 in0.0 mm
06:00 AM 37.0°F2.8°C 34.5°F1.4°C 90% 3.0 mph E4.8 kmh E 11.0 mph17.7 kmh 29.66 in1004.4 mb 0.00 in0.0 mm 0.00 in0.0 mm 0.00 in0.0 mm
05:53 AM 37.0°F2.8°C 34.7°F1.5°C 91% 3.0 mph ENE4.8 kmh ENE 8.0 mph12.9 kmh 29.66 in1004.4 mb 0.00 in0.0 mm 0.00 in0.0 mm 0.00 in0.0 mm
05:46 AM 37.2°F2.9°C 34.7°F1.5°C 90% 4.0 mph E6.4 kmh E 13.0 mph20.9 kmh 29.66 in1004.4 mb 0.00 in0.0 mm 0.00 in0.0 mm 0.00 in0.0 mm
05:39 AM 37.2°F2.9°C 34.7°F1.5°C 90% 4.0 mph ENE6.4 kmh ENE 13.0 mph20.9 kmh 29.66 in1004.4 mb 0.00 in0.0 mm 0.00 in0.0 mm 0.00 in0.0 mm
05:32 AM 37.4°F3.0°C 34.7°F1.5°C 90% 5.0 mph E8.0 kmh E 16.0 mph25.7 kmh 29.66 in1004.4 mb 0.00 in0.0 mm 0.00 in0.0 mm 0.00 in0.0 mm
05:25 AM 37.4°F3.0°C 35.1°F1.7°C 91% 4.0 mph E6.4 kmh E 15.0 mph24.1 kmh 29.66 in1004.4 mb 0.00 in0.0 mm 0.00 in0.0 mm 0.00 in0.0 mm
05:18 AM 37.4°F3.0°C 35.1°F1.7°C 91% 3.0 mph E4.8 kmh E 15.0 mph24.1 kmh 29.65 in1004.1 mb 0.00 in0.0 mm 0.00 in0.0 mm 0.00 in0.0 mm
05:11 AM 37.6°F3.1°C 35.1°F1.7°C 91% 3.0 mph E4.8 kmh E 9.0 mph14.5 kmh 29.65 in1004.1 mb 0.00 in0.0 mm 0.00 in0.0 mm 0.00 in0.0 mm
05:04 AM 37.6°F3.1°C 35.1°F1.7°C 91% 4.0 mph E6.4 kmh E 9.0 mph14.5 kmh 29.65 in1004.1 mb 0.00 in0.0 mm 0.00 in0.0 mm 0.00 in0.0 mm
04:57 AM 37.6°F3.1°C 35.1°F1.7°C 91% 4.0 mph E6.4 kmh E 9.0 mph14.5 kmh 29.65 in1004.1 mb 0.00 in0.0 mm 0.00 in0.0 mm 0.00 in0.0 mm
04:50 AM 37.6°F3.1°C 35.1°F1.7°C 91% 5.0 mph E8.0 kmh E 13.0 mph20.9 kmh 29.65 in1004.1 mb 0.00 in0.0 mm 0.00 in0.0 mm 0.00 in0.0 mm
04:43 AM 37.6°F3.1°C 34.9°F1.6°C 90% 5.0 mph ENE8.0 kmh ENE 13.0 mph20.9 kmh 29.65 in1004.1 mb 0.00 in0.0 mm 0.00 in0.0 mm 0.00 in0.0 mm
04:36 AM 37.8°F3.2°C 35.1°F1.7°C 90% 7.0 mph E11.3 kmh E 15.0 mph24.1 kmh 29.65 in1004.1 mb 0.00 in0.0 mm 0.00 in0.0 mm 0.00 in0.0 mm
04:29 AM 37.8°F3.2°C 35.1°F1.7°C 90% 7.0 mph E11.3 kmh E 13.0 mph20.9 kmh 29.65 in1004.1 mb 0.00 in0.0 mm 0.00 in0.0 mm 0.00 in0.0 mm
04:22 AM 37.8°F3.2°C 35.1°F1.7°C 90% 7.0 mph E11.3 kmh E 16.0 mph25.7 kmh 29.65 in1004.1 mb 0.00 in0.0 mm 0.00 in0.0 mm 0.00 in0.0 mm
04:15 AM 37.8°F3.2°C 35.1°F1.7°C 90% 5.0 mph E8.0 kmh E 16.0 mph25.7 kmh 29.65 in1004.1 mb 0.00 in0.0 mm 0.00 in0.0 mm 0.00 in0.0 mm
04:08 AM 37.8°F3.2°C 35.1°F1.7°C 90% 7.0 mph E11.3 kmh E 16.0 mph25.7 kmh 29.65 in1004.1 mb 0.00 in0.0 mm 0.00 in0.0 mm 0.00 in0.0 mm
04:01 AM 37.8°F3.2°C 35.1°F1.7°C 90% 7.0 mph ENE11.3 kmh ENE 16.0 mph25.7 kmh 29.65 in1004.1 mb 0.00 in0.0 mm 0.00 in0.0 mm 0.00 in0.0 mm
03:54 AM 37.8°F3.2°C 35.1°F1.7°C 90% 5.0 mph ENE8.0 kmh ENE 16.0 mph25.7 kmh 29.65 in1004.1 mb 0.00 in0.0 mm 0.00 in0.0 mm 0.00 in0.0 mm
03:47 AM 37.8°F3.2°C 35.1°F1.7°C 90% 5.0 mph E8.0 kmh E 15.0 mph24.1 kmh 29.65 in1004.1 mb 0.00 in0.0 mm 0.00 in0.0 mm 0.00 in0.0 mm
03:40 AM 37.8°F3.2°C 34.9°F1.6°C 89% 4.0 mph E6.4 kmh E 13.0 mph20.9 kmh 29.65 in1004.1 mb 0.00 in0.0 mm 0.00 in0.0 mm 0.00 in0.0 mm
03:33 AM 37.8°F3.2°C 34.9°F1.6°C 89% 5.0 mph ENE8.0 kmh ENE 16.0 mph25.7 kmh 29.64 in1003.7 mb 0.00 in0.0 mm 0.00 in0.0 mm 0.00 in0.0 mm
03:26 AM 37.8°F3.2°C 34.9°F1.6°C 89% 7.0 mph ENE11.3 kmh ENE 23.0 mph37.0 kmh 29.64 in1003.7 mb 0.00 in0.0 mm 0.00 in0.0 mm 0.00 in0.0 mm
03:19 AM 37.8°F3.2°C 34.9°F1.6°C 89% 5.0 mph ENE8.0 kmh ENE 9.0 mph14.5 kmh 29.65 in1004.1 mb 0.00 in0.0 mm 0.00 in0.0 mm 0.00 in0.0 mm
03:12 AM 37.8°F3.2°C 34.9°F1.6°C 89% 5.0 mph ENE8.0 kmh ENE 19.0 mph30.6 kmh 29.65 in1004.1 mb 0.00 in0.0 mm 0.00 in0.0 mm 0.00 in0.0 mm
03:05 AM 37.8°F3.2°C 34.5°F1.4°C 88% 5.0 mph ENE8.0 kmh ENE 13.0 mph20.9 kmh 29.65 in1004.1 mb 0.00 in0.0 mm 0.00 in0.0 mm 0.00 in0.0 mm
02:58 AM 37.8°F3.2°C 34.5°F1.4°C 88% 5.0 mph ENE8.0 kmh ENE 13.0 mph20.9 kmh 29.65 in1004.1 mb 0.00 in0.0 mm 0.00 in0.0 mm 0.00 in0.0 mm
02:51 AM 37.8°F3.2°C 34.5°F1.4°C 88% 4.0 mph E6.4 kmh E 9.0 mph14.5 kmh 29.66 in1004.4 mb 0.00 in0.0 mm 0.00 in0.0 mm 0.00 in0.0 mm
02:44 AM 37.8°F3.2°C 34.5°F1.4°C 88% 5.0 mph ENE8.0 kmh ENE 13.0 mph20.9 kmh 29.66 in1004.4 mb 0.00 in0.0 mm 0.00 in0.0 mm 0.00 in0.0 mm
02:37 AM 37.8°F3.2°C 34.5°F1.4°C 88% 5.0 mph ENE8.0 kmh ENE 12.0 mph19.3 kmh 29.66 in1004.4 mb 0.00 in0.0 mm 0.00 in0.0 mm 0.00 in0.0 mm
02:30 AM 37.8°F3.2°C 34.5°F1.4°C 88% 7.0 mph E11.3 kmh E 16.0 mph25.7 kmh 29.66 in1004.4 mb 0.00 in0.0 mm 0.00 in0.0 mm 0.00 in0.0 mm
02:23 AM 37.8°F3.2°C 34.3°F1.3°C 87% 5.0 mph E8.0 kmh E 16.0 mph25.7 kmh 29.66 in1004.4 mb 0.00 in0.0 mm 0.00 in0.0 mm 0.00 in0.0 mm
02:16 AM 37.8°F3.2°C 34.5°F1.4°C 88% 4.0 mph E6.4 kmh E 13.0 mph20.9 kmh 29.66 in1004.4 mb 0.00 in0.0 mm 0.00 in0.0 mm 0.00 in0.0 mm
02:09 AM 37.8°F3.2°C 34.5°F1.4°C 88% 5.0 mph E8.0 kmh E 11.0 mph17.7 kmh 29.65 in1004.1 mb 0.00 in0.0 mm 0.00 in0.0 mm 0.00 in0.0 mm
02:02 AM 37.8°F3.2°C 34.3°F1.3°C 87% 5.0 mph E8.0 kmh E 12.0 mph19.3 kmh 29.65 in1004.1 mb 0.00 in0.0 mm 0.00 in0.0 mm 0.00 in0.0 mm
01:55 AM 37.9°F3.3°C 34.3°F1.3°C 87% 5.0 mph E8.0 kmh E 12.0 mph19.3 kmh 29.64 in1003.7 mb 0.00 in0.0 mm 0.00 in0.0 mm 0.00 in0.0 mm
01:48 AM 37.9°F3.3°C 34.5°F1.4°C 87% 5.0 mph ENE8.0 kmh ENE 16.0 mph25.7 kmh 29.64 in1003.7 mb 0.00 in0.0 mm 0.00 in0.0 mm 0.00 in0.0 mm
01:41 AM 37.9°F3.3°C 34.5°F1.4°C 87% 5.0 mph E8.0 kmh E 13.0 mph20.9 kmh 29.64 in1003.7 mb 0.00 in0.0 mm 0.00 in0.0 mm 0.00 in0.0 mm
01:34 AM 38.1°F3.4°C 34.5°F1.4°C 87% 7.0 mph ENE11.3 kmh ENE 15.0 mph24.1 kmh 29.64 in1003.7 mb 0.00 in0.0 mm 0.00 in0.0 mm 0.00 in0.0 mm
01:27 AM 38.1°F3.4°C 34.7°F1.5°C 87% 5.0 mph ENE8.0 kmh ENE 17.0 mph27.4 kmh 29.64 in1003.7 mb 0.00 in0.0 mm 0.00 in0.0 mm 0.00 in0.0 mm
01:20 AM 38.5°F3.6°C 34.9°F1.6°C 87% 5.0 mph ENE8.0 kmh ENE 11.0 mph17.7 kmh 29.64 in1003.7 mb 0.00 in0.0 mm 0.00 in0.0 mm 0.00 in0.0 mm
01:13 AM 38.5°F3.6°C 34.9°F1.6°C 87% 5.0 mph E8.0 kmh E 9.0 mph14.5 kmh 29.64 in1003.7 mb 0.00 in0.0 mm 0.00 in0.0 mm 0.00 in0.0 mm
01:06 AM 38.7°F3.7°C 35.1°F1.7°C 87% 5.0 mph ENE8.0 kmh ENE 12.0 mph19.3 kmh 29.64 in1003.7 mb 0.00 in0.0 mm 0.00 in0.0 mm 0.00 in0.0 mm
12:59 AM 38.7°F3.7°C 35.2°F1.8°C 87% 5.0 mph ENE8.0 kmh ENE 13.0 mph20.9 kmh 29.64 in1003.7 mb 0.00 in0.0 mm 0.00 in0.0 mm 0.00 in0.0 mm
12:52 AM 38.8°F3.8°C 35.2°F1.8°C 87% 4.0 mph ENE6.4 kmh ENE 11.0 mph17.7 kmh 29.65 in1004.1 mb 0.00 in0.0 mm 0.00 in0.0 mm 0.00 in0.0 mm
12:45 AM 38.8°F3.8°C 35.4°F1.9°C 87% 4.0 mph ENE6.4 kmh ENE 12.0 mph19.3 kmh 29.65 in1004.1 mb 0.00 in0.0 mm 0.00 in0.0 mm 0.00 in0.0 mm
12:38 AM 39.0°F3.9°C 35.6°F2.0°C 87% 5.0 mph ENE8.0 kmh ENE 13.0 mph20.9 kmh 29.65 in1004.1 mb 0.00 in0.0 mm 0.00 in0.0 mm 0.00 in0.0 mm
12:31 AM 39.4°F4.1°C 35.8°F2.1°C 87% 7.0 mph E11.3 kmh E 16.0 mph25.7 kmh 29.66 in1004.4 mb 0.00 in0.0 mm 0.00 in0.0 mm 0.00 in0.0 mm
12:24 AM 39.4°F4.1°C 35.6°F2.0°C 86% 4.0 mph ENE6.4 kmh ENE 16.0 mph25.7 kmh 29.66 in1004.4 mb 0.00 in0.0 mm 0.00 in0.0 mm 0.00 in0.0 mm
12:17 AM 39.6°F4.2°C 35.6°F2.0°C 86% 4.0 mph E6.4 kmh E 12.0 mph19.3 kmh 29.66 in1004.4 mb 0.00 in0.0 mm 0.00 in0.0 mm 0.00 in0.0 mm
12:10 AM 39.6°F4.2°C 35.8°F2.1°C 86% 4.0 mph ENE6.4 kmh ENE 9.0 mph14.5 kmh 29.66 in1004.4 mb 0.00 in0.0 mm 0.00 in0.0 mm 0.00 in0.0 mm
12:03 AM 39.7°F4.3°C 35.8°F2.1°C 86% 5.0 mph ENE8.0 kmh ENE 15.0 mph24.1 kmh 29.65 in1004.1 mb 0.00 in0.0 mm 0.00 in0.0 mm 0.00 in0.0 mm